Time;durP1;ratioP1;P1;durP2;ratioP2;P2;SDS_P1;SDS_P2;PMS_P1;PMS_P2;Temp;Humidity;BMP_temperature;BMP_pressure;BME280_temperature;BME280_humidity;BME280_pressure;Samples;Min_cycle;Max_cycle;Signal;HPM_P1;HPM_P2
2022/09/08 00:01:58;;;;;;;;;;;;;;;24.26;63.76;98946.81;7314176;19;130679;-38
2022/09/08 00:04:23;;;;;;;;;;;;;;;24.35;64.05;98957.09;7313961;19;130895;-41
2022/09/08 00:06:48;;;;;;;;;;;;;;;24.36;64.06;98952.66;7314031;19;130939;-40
2022/09/08 00:09:14;;;;;;;;;;;;;;;24.36;63.63;98960.53;7308357;19;129267;-42
2022/09/08 00:11:40;;;;;;;;;;;;;;;24.35;63.59;98951.84;7314539;19;129581;-41
2022/09/08 00:14:06;;;;;;;;;;;;;;;24.36;63.73;98950.03;7315516;19;129558;-41
2022/09/08 00:16:31;;;;;;;;;;;;;;;24.36;64.35;98942.16;7312953;19;130706;-40
2022/09/08 00:18:57;;;;;;;;;;;;;;;24.35;64.26;98940.50;7311907;19;129243;-40
2022/09/08 00:21:24;;;;;;;;;;;;;;;24.35;63.47;98936.06;7313392;19;129083;-38
2022/09/08 00:23:50;;;;;;;;;;;;;;;24.35;64.01;98936.06;7312567;19;129968;-40
2022/09/08 00:26:15;;;;;;;;;;;;;;;24.35;64.26;98932.63;7313965;19;130204;-41
2022/09/08 00:28:41;;;;;;;;;;;;;;;24.35;64.42;98930.81;7311303;19;128956;-40
2022/09/08 00:31:06;;;;;;;;;;;;;;;24.34;64.04;98931.81;7310542;19;130260;-41
2022/09/08 00:33:32;;;;;;;;;;;;;;;24.34;63.83;98934.44;7310480;19;131158;-39
2022/09/08 00:35:57;;;;;;;;;;;;;;;24.36;63.97;98936.91;7313640;19;129245;-40
2022/09/08 00:38:23;;;;;;;;;;;;;;;24.36;63.72;98927.19;7313137;19;130210;-38
2022/09/08 00:40:49;;;;;;;;;;;;;;;24.34;64.28;98923.94;7312560;19;129135;-41
2022/09/08 00:43:32;;;;;;;;;;;;;;;24.36;64.09;98926.38;7313334;19;129644;-39
2022/09/08 00:46:03;;;;;;;;;;;;;;;24.34;64.28;98929.19;7309941;19;131672;-40
2022/09/08 00:48:29;;;;;;;;;;;;;;;24.26;63.56;98916.06;7310259;19;129776;-41
2022/09/08 00:50:54;;;;;;;;;;;;;;;24.36;63.65;98935.06;7312639;19;131778;-40
2022/09/08 00:53:20;;;;;;;;;;;;;;;24.34;63.68;98929.19;7313734;19;131087;-40
2022/09/08 00:55:45;;;;;;;;;;;;;;;24.36;63.96;98937.69;7313452;19;129324;-39
2022/09/08 00:58:11;;;;;;;;;;;;;;;24.37;64.33;98923.59;7310579;19;130699;-42
2022/09/08 01:00:38;;;;;;;;;;;;;;;24.36;63.98;98921.94;7314106;19;131099;-38
2022/09/08 01:03:06;;;;;;;;;;;;;;;24.36;64.05;98916.69;7298947;19;130218;-38
2022/09/08 01:05:37;;;;;;;;;;;;;;;24.36;64.19;98900.13;7300959;19;129684;-38
2022/09/08 01:14:40;;;;;;;;;;;;;;;24.37;64.19;98897.31;7313908;19;130411;-38
2022/09/08 01:17:21;;;;;;;;;;;;;;;24.37;64.24;98880.72;7309839;19;129021;-41
2022/09/08 01:19:47;;;;;;;;;;;;;;;24.34;63.76;98876.66;7313454;19;129082;-38
2022/09/08 01:22:12;;;;;;;;;;;;;;;24.34;64.15;98879.28;7312888;19;129358;-37
2022/09/08 01:24:45;;;;;;;;;;;;;;;24.30;63.78;98871.91;7307664;19;130440;-42
2022/09/08 01:27:11;;;;;;;;;;;;;;;24.36;63.70;98885.16;7312179;19;129860;-37
2022/09/08 01:29:36;;;;;;;;;;;;;;;24.36;63.79;98887.78;7313118;19;129264;-41
2022/09/08 01:32:03;;;;;;;;;;;;;;;24.35;64.18;98882.69;7308921;19;129143;-41
2022/09/08 01:34:36;;;;;;;;;;;;;;;24.35;64.05;98882.69;7312894;19;130913;-40
2022/09/08 01:37:01;;;;;;;;;;;;;;;24.36;63.76;98893.03;7312532;19;129690;-41
2022/09/08 01:39:26;;;;;;;;;;;;;;;24.36;63.70;98890.41;7313359;19;129436;-41
2022/09/08 01:41:51;;;;;;;;;;;;;;;24.38;64.14;98887.59;7310405;19;129442;-39
2022/09/08 01:44:16;;;;;;;;;;;;;;;24.37;63.74;98896.47;7312350;19;129170;-36
2022/09/08 01:46:42;;;;;;;;;;;;;;;24.36;63.95;98879.88;7312980;19;129138;-40
2022/09/08 01:49:07;;;;;;;;;;;;;;;24.36;64.05;98898.28;7307396;19;129251;-40
2022/09/08 01:51:33;;;;;;;;;;;;;;;24.36;63.46;98890.41;7310897;19;129514;-40
2022/09/08 01:53:58;;;;;;;;;;;;;;;24.35;63.98;98890.56;7311702;19;129944;-38
2022/09/08 01:56:23;;;;;;;;;;;;;;;24.36;63.86;98889.59;7310489;19;129171;-41
2022/09/08 01:58:49;;;;;;;;;;;;;;;24.37;63.57;98886.81;7308899;19;131384;-41
2022/09/08 02:01:14;;;;;;;;;;;;;;;24.37;63.78;98884.16;7310109;19;129230;-40
2022/09/08 02:03:39;;;;;;;;;;;;;;;24.37;63.71;98881.53;7309366;19;131137;-37
2022/09/08 02:06:05;;;;;;;;;;;;;;;24.37;64.22;98880.72;7308208;19;129396;-35
2022/09/08 02:08:30;;;;;;;;;;;;;;;24.37;63.47;98875.47;7308988;19;129673;-41
2022/09/08 02:10:57;;;;;;;;;;;;;;;24.38;64.03;98880.53;7312399;19;129046;-39
2022/09/08 02:13:23;;;;;;;;;;;;;;;24.35;63.76;98878.28;7310769;19;129718;-41
2022/09/08 02:15:49;;;;;;;;;;;;;;;24.35;63.80;98883.53;7311979;19;129175;-41
2022/09/08 02:18:14;;;;;;;;;;;;;;;24.35;64.15;98874.81;7309615;19;129552;-39
2022/09/08 02:20:39;;;;;;;;;;;;;;;24.36;64.21;98864.13;7311267;19;129076;-41
2022/09/08 02:23:04;;;;;;;;;;;;;;;24.35;63.29;98849.38;7311135;19;129220;-40
2022/09/08 02:25:29;;;;;;;;;;;;;;;24.35;63.84;98841.50;7307700;19;129461;-41
2022/09/08 02:27:55;;;;;;;;;;;;;;;24.36;63.91;98839.69;7310557;19;129128;-41
2022/09/08 02:30:21;;;;;;;;;;;;;;;24.33;63.91;98840.84;7308982;19;129713;-41
2022/09/08 02:32:48;;;;;;;;;;;;;;;24.35;64.24;98841.50;7310393;19;129395;-41
2022/09/08 02:35:13;;;;;;;;;;;;;;;24.37;63.51;98838.69;7307126;19;131468;-41
2022/09/08 02:37:39;;;;;;;;;;;;;;;24.39;63.73;98832.25;7309949;19;129463;-39
2022/09/08 02:40:04;;;;;;;;;;;;;;;24.26;64.08;98805.75;7311460;19;130302;-41
2022/09/08 02:42:29;;;;;;;;;;;;;;;24.35;63.26;98824.91;7307054;19;130236;-41
2022/09/08 02:44:55;;;;;;;;;;;;;;;24.36;63.43;98826.56;7310243;19;129754;-40
2022/09/08 02:47:20;;;;;;;;;;;;;;;24.37;63.53;98822.91;7308630;19;130554;-41
2022/09/08 02:49:45;;;;;;;;;;;;;;;24.35;63.61;98820.47;7309822;19;129222;-41
2022/09/08 02:52:11;;;;;;;;;;;;;;;24.35;64.22;98820.47;7305586;19;129343;-42
2022/09/08 02:54:37;;;;;;;;;;;;;;;24.36;63.85;98816.84;7312716;19;129607;-38
2022/09/08 02:57:02;;;;;;;;;;;;;;;24.35;63.98;98820.47;7311816;19;130236;-41
2022/09/08 02:59:27;;;;;;;;;;;;;;;24.35;63.71;98815.22;7315229;19;130119;-40
2022/09/08 03:01:52;;;;;;;;;;;;;;;24.36;63.59;98806.31;7316072;19;129323;-40
2022/09/08 03:04:18;;;;;;;;;;;;;;;24.37;63.76;98807.16;7309833;19;129473;-42
2022/09/08 03:06:43;;;;;;;;;;;;;;;24.36;63.33;98808.94;7312825;19;130009;-41
2022/09/08 03:09:09;;;;;;;;;;;;;;;24.35;64.14;98809.97;7314729;19;129429;-41
2022/09/08 03:11:34;;;;;;;;;;;;;;;24.35;63.52;98820.47;7314166;19;130217;-40
2022/09/08 03:14:00;;;;;;;;;;;;;;;24.36;63.87;98816.84;7315354;19;129822;-39
2022/09/08 03:16:25;;;;;;;;;;;;;;;24.36;63.41;98810.78;7312642;19;129704;-38
2022/09/08 03:18:50;;;;;;;;;;;;;;;24.36;63.50;98811.59;7313314;19;129281;-41
2022/09/08 03:21:16;;;;;;;;;;;;;;;24.25;63.92;98791.00;7317450;19;130483;-41
2022/09/08 03:23:41;;;;;;;;;;;;;;;24.35;63.42;98804.72;7314550;19;129544;-41
2022/09/08 03:26:12;;;;;;;;;;;;;;;24.37;63.97;98800.09;7312598;19;128941;-42
2022/09/08 03:28:38;;;;;;;;;;;;;;;24.38;63.64;98799.09;7313159;19;130149;-40
2022/09/08 03:31:05;;;;;;;;;;;;;;;24.37;63.34;98802.72;7314020;19;129425;-42
2022/09/08 03:33:31;;;;;;;;;;;;;;;24.37;63.96;98791.38;7316342;19;129133;-36
2022/09/08 03:35:58;;;;;;;;;;;;;;;24.38;63.83;98782.50;7313549;19;128839;-40
2022/09/08 03:38:24;;;;;;;;;;;;;;;24.38;63.44;98780.69;7289019;19;130733;-37
2022/09/08 03:40:49;;;;;;;;;;;;;;;24.37;63.78;98775.63;7308164;19;130865;-42
2022/09/08 03:43:15;;;;;;;;;;;;;;;24.38;63.50;98772.81;7313349;19;130724;-42
2022/09/08 03:45:42;;;;;;;;;;;;;;;24.38;64.13;98775.44;7311714;19;129833;-39
2022/09/08 03:48:08;;;;;;;;;;;;;;;24.38;63.72;98772.81;7312812;19;129876;-41
2022/09/08 03:50:33;;;;;;;;;;;;;;;24.38;64.04;98767.56;7310341;19;129966;-41
2022/09/08 03:52:58;;;;;;;;;;;;;;;24.37;64.04;98760.69;7305603;19;130643;-39
2022/09/08 03:55:23;;;;;;;;;;;;;;;24.38;64.04;98757.06;7308347;19;130882;-40
2022/09/08 03:57:49;;;;;;;;;;;;;;;24.38;63.33;98759.69;7309569;19;129542;-38
2022/09/08 04:00:15;;;;;;;;;;;;;;;24.30;63.63;98751.88;7308495;19;131038;-39
2022/09/08 04:02:40;;;;;;;;;;;;;;;24.38;63.91;98764.09;7312499;19;129020;-42
2022/09/08 04:05:06;;;;;;;;;;;;;;;24.38;63.74;98762.31;7307580;19;130606;-41
2022/09/08 04:07:32;;;;;;;;;;;;;;;24.39;63.95;98757.88;7309636;19;129476;-40
2022/09/08 04:09:58;;;;;;;;;;;;;;;24.38;63.29;98767.56;7306878;19;129802;-39
2022/09/08 04:12:23;;;;;;;;;;;;;;;24.37;63.96;98775.63;7310615;19;129667;-40
2022/09/08 04:14:49;;;;;;;;;;;;;;;24.35;63.79;98767.91;7311017;19;129317;-35
2022/09/08 04:17:15;;;;;;;;;;;;;;;24.35;63.75;98762.66;7308455;19;129820;-38
2022/09/08 04:19:40;;;;;;;;;;;;;;;24.36;63.57;98761.66;7310223;19;130848;-41
2022/09/08 04:22:06;;;;;;;;;;;;;;;24.37;63.62;98755.44;7310248;19;131363;-40
2022/09/08 04:24:32;;;;;;;;;;;;;;;24.28;63.42;98751.22;7308045;19;128992;-40
2022/09/08 04:26:57;;;;;;;;;;;;;;;24.38;64.12;98761.47;7311450;19;130141;-42
2022/09/08 04:29:22;;;;;;;;;;;;;;;24.37;63.46;98750.19;7310793;19;129144;-41
2022/09/08 04:31:49;;;;;;;;;;;;;;;24.36;64.09;98748.53;7309256;19;130793;-42
2022/09/08 04:34:14;;;;;;;;;;;;;;;24.36;63.17;98753.78;7310766;19;130170;-42
2022/09/08 04:36:41;;;;;;;;;;;;;;;24.38;64.20;98751.81;7309525;19;129495;-39
2022/09/08 04:39:06;;;;;;;;;;;;;;;24.41;63.91;98748.00;7306486;19;130667;-38
2022/09/08 04:41:31;;;;;;;;;;;;;;;24.40;63.61;98744.56;7308881;19;129999;-40
2022/09/08 04:44:00;;;;;;;;;;;;;;;24.39;63.94;98742.91;7307964;19;130373;-39
2022/09/08 04:46:26;;;;;;;;;;;;;;;24.39;63.95;98748.16;7306487;19;131977;-42
2022/09/08 04:48:52;;;;;;;;;;;;;;;24.38;63.64;98749.16;7306330;19;129326;-40
2022/09/08 04:51:17;;;;;;;;;;;;;;;24.38;64.13;98743.91;7311290;19;129994;-37
2022/09/08 04:53:43;;;;;;;;;;;;;;;24.28;63.44;98730.22;7308066;19;129253;-39
2022/09/08 04:56:09;;;;;;;;;;;;;;;24.29;63.86;98731.03;7308347;19;129891;-40
2022/09/08 04:58:36;;;;;;;;;;;;;;;24.38;63.48;98738.66;7308990;19;129321;-41
2022/09/08 05:01:04;;;;;;;;;;;;;;;24.37;63.82;98721.28;7307603;19;129778;-42
2022/09/08 05:03:30;;;;;;;;;;;;;;;24.30;63.94;98712.47;7308078;19;129284;-41
2022/09/08 05:05:55;;;;;;;;;;;;;;;24.38;63.85;98728.16;7307722;19;131419;-40
2022/09/08 05:08:20;;;;;;;;;;;;;;;24.35;63.09;98725.88;7307344;19;130858;-39
2022/09/08 05:10:47;;;;;;;;;;;;;;;24.29;64.64;98726.59;7308684;19;129785;-42
2022/09/08 05:13:13;;;;;;;;;;;;;;;24.11;63.83;98735.78;7310258;19;131210;-40
2022/09/08 05:15:38;;;;;;;;;;;;;;;24.21;64.44;98733.75;7310703;19;130306;-41
2022/09/08 05:18:03;;;;;;;;;;;;;;;24.32;63.92;98739.38;7305398;19;131130;-42
2022/09/08 05:20:29;;;;;;;;;;;;;;;24.36;64.45;98722.25;7307782;19;130933;-39
2022/09/08 05:22:54;;;;;;;;;;;;;;;24.42;64.03;98720.72;7304933;19;129660;-39
2022/09/08 05:25:19;;;;;;;;;;;;;;;24.42;64.17;98715.47;7302692;19;130614;-41
2022/09/08 05:27:47;;;;;;;;;;;;;;;24.34;64.16;98703.25;7309352;19;130104;-42
2022/09/08 05:30:12;;;;;;;;;;;;;;;24.44;64.04;98729.25;7314364;19;129311;-39
2022/09/08 05:32:37;;;;;;;;;;;;;;;24.42;63.61;98721.56;7312420;19;128769;-39
2022/09/08 05:35:03;;;;;;;;;;;;;;;24.44;63.89;98732.69;7314013;19;129108;-41
2022/09/08 05:37:29;;;;;;;;;;;;;;;24.43;63.79;98732.88;7311964;19;129223;-42
2022/09/08 05:39:54;;;;;;;;;;;;;;;24.44;63.88;98737.94;7314858;19;128934;-41
2022/09/08 05:42:19;;;;;;;;;;;;;;;24.40;63.75;98731.44;7312799;19;128876;-39
2022/09/08 05:44:45;;;;;;;;;;;;;;;24.43;63.60;98738.94;7314376;19;128910;-40
2022/09/08 05:47:10;;;;;;;;;;;;;;;24.44;63.96;98734.50;7313813;19;130271;-40
2022/09/08 05:49:35;;;;;;;;;;;;;;;24.45;63.40;98731.72;7313053;19;128782;-40
2022/09/08 05:52:00;;;;;;;;;;;;;;;24.42;63.35;98732.06;7314017;19;129504;-40
2022/09/08 05:54:26;;;;;;;;;;;;;;;24.49;63.63;98721.66;7313995;19;129034;-38
2022/09/08 05:56:51;;;;;;;;;;;;;;;24.48;63.45;98720.84;7313976;19;130084;-41
2022/09/08 05:59:16;;;;;;;;;;;;;;;24.48;63.62;98725.25;7310968;19;128869;-39
2022/09/08 06:01:42;;;;;;;;;;;;;;;24.54;63.67;98729.00;7313025;19;128953;-39
2022/09/08 06:04:08;;;;;;;;;;;;;;;24.46;63.59;98714.13;7313204;19;130646;-38
2022/09/08 06:06:33;;;;;;;;;;;;;;;24.55;63.73;98733.25;7309702;19;129282;-39
2022/09/08 06:08:59;;;;;;;;;;;;;;;24.56;62.93;98730.44;7306240;19;129675;-38
2022/09/08 06:11:25;;;;;;;;;;;;;;;24.58;62.81;98735.53;7311270;19;128947;-39
2022/09/08 06:13:51;;;;;;;;;;;;;;;24.58;63.52;98730.28;7312482;19;130117;-38
2022/09/08 06:16:17;;;;;;;;;;;;;;;24.48;63.54;98720.84;7311221;19;130208;-37
2022/09/08 06:18:43;;;;;;;;;;;;;;;24.61;63.60;98756.19;7310508;19;129287;-41
2022/09/08 06:21:11;;;;;;;;;;;;;;;24.58;63.68;98756.56;7311473;19;129194;-39
2022/09/08 06:23:37;;;;;;;;;;;;;;;24.48;62.83;98723.47;7311891;19;128942;-39
2022/09/08 06:26:14;;;;;;;;;;;;;;;24.58;63.54;98727.66;7310150;19;129411;-37
2022/09/08 06:28:41;;;;;;;;;;;;;;;24.58;63.22;98719.78;7311683;19;129418;-40
2022/09/08 06:31:08;;;;;;;;;;;;;;;24.57;63.76;98734.72;7319258;19;129108;-40
2022/09/08 06:33:37;;;;;;;;;;;;;;;24.58;63.74;98746.06;7317553;19;130395;-40
2022/09/08 06:36:13;;;;;;;;;;;;;;;24.57;63.31;98744.41;7318675;19;129323;-41
2022/09/08 06:38:42;;;;;;;;;;;;;;;24.56;63.08;98729.63;7317527;19;129257;-41
2022/09/08 06:41:13;;;;;;;;;;;;;;;24.58;63.93;98722.41;7319310;19;128973;-40
2022/09/08 06:43:46;;;;;;;;;;;;;;;24.60;62.97;98715.13;7317698;19;130194;-41
2022/09/08 06:46:20;;;;;;;;;;;;;;;24.55;63.23;98709.59;7315850;19;130588;-38
2022/09/08 06:48:45;;;;;;;;;;;;;;;24.61;63.04;98712.31;7315865;19;128993;-38
2022/09/08 06:51:22;;;;;;;;;;;;;;;24.60;62.86;98717.75;7317968;19;129159;-40
2022/09/08 06:54:06;;;;;;;;;;;;;;;24.52;62.98;98705.53;7318535;19;130779;-39
2022/09/08 06:56:31;;;;;;;;;;;;;;;24.61;63.09;98727.28;7318705;19;130218;-39
2022/09/08 06:59:00;;;;;;;;;;;;;;;24.60;62.92;98723.00;7316176;19;129611;-40
2022/09/08 07:01:49;;;;;;;;;;;;;;;24.60;63.06;98733.53;7315686;19;130058;-40
2022/09/08 07:04:27;;;;;;;;;;;;;;;24.59;63.67;98731.91;7316365;19;129306;-40
2022/09/08 07:07:12;;;;;;;;;;;;;;;24.53;63.00;98727.38;7315433;19;129639;-38
2022/09/08 07:09:46;;;;;;;;;;;;;;;24.51;63.36;98732.00;7316140;19;129236;-41
2022/09/08 07:12:14;;;;;;;;;;;;;;;24.49;63.78;98732.97;7317025;19;129089;-40
2022/09/08 07:14:51;;;;;;;;;;;;;;;24.57;63.17;98739.16;7318053;19;130258;-40
2022/09/08 07:17:34;;;;;;;;;;;;;;;24.55;63.85;98743.75;7316420;19;129145;-38
2022/09/08 07:20:00;;;;;;;;;;;;;;;24.56;62.98;98753.28;7318788;19;129786;-41
2022/09/08 07:22:25;;;;;;;;;;;;;;;24.53;63.63;98753.66;7316931;19;129060;-41
2022/09/08 07:24:52;;;;;;;;;;;;;;;24.54;63.47;98748.22;7317343;19;130030;-38
2022/09/08 07:27:17;;;;;;;;;;;;;;;24.58;63.43;98746.06;7317591;19;130454;-41
2022/09/08 07:29:45;;;;;;;;;;;;;;;24.53;63.35;98748.41;7317920;19;129082;-38
2022/09/08 07:32:27;;;;;;;;;;;;;;;24.53;63.49;98758.91;7317292;19;129212;-38
2022/09/08 07:35:05;;;;;;;;;;;;;;;24.51;63.13;98766.94;7317487;19;130294;-40
2022/09/08 07:37:34;;;;;;;;;;;;;;;24.58;63.53;98761.81;7315994;19;130579;-40
2022/09/08 07:39:59;;;;;;;;;;;;;;;24.60;62.81;98759.81;7316760;19;128957;-40
2022/09/08 07:42:25;;;;;;;;;;;;;;;24.61;63.41;98751.75;7315679;19;128776;-38
2022/09/08 07:44:54;;;;;;;;;;;;;;;24.60;63.25;98754.56;7316787;19;129035;-41
2022/09/08 07:47:28;;;;;;;;;;;;;;;24.63;63.22;98751.56;7315903;19;131360;-41
2022/09/08 07:49:56;;;;;;;;;;;;;;;24.60;63.28;98759.81;7316368;19;128794;-39
2022/09/08 07:52:21;;;;;;;;;;;;;;;24.53;63.55;98764.16;7316559;19;128899;-39
2022/09/08 07:54:52;;;;;;;;;;;;;;;24.58;63.73;98762.63;7316282;19;129748;-40
2022/09/08 07:57:21;;;;;;;;;;;;;;;24.54;63.30;98765.78;7315588;19;129447;-39
2022/09/08 07:59:59;;;;;;;;;;;;;;;24.53;63.57;98772.06;7315938;19;129147;-40
2022/09/08 08:02:46;;;;;;;;;;;;;;;24.56;63.30;98767.22;7315517;19;129844;-40
2022/09/08 08:05:23;;;;;;;;;;;;;;;24.51;63.37;98771.41;7315864;19;129099;-37
2022/09/08 08:07:57;;;;;;;;;;;;;;;24.48;63.67;98773.38;7315985;19;129201;-39
2022/09/08 08:10:27;;;;;;;;;;;;;;;24.48;63.60;98773.38;7316029;19;129519;-41
2022/09/08 08:12:55;;;;;;;;;;;;;;;24.51;63.63;98781.91;7316304;19;129163;-40
2022/09/08 08:15:23;;;;;;;;;;;;;;;24.56;63.12;98779.56;7316631;19;130114;-40
2022/09/08 08:17:54;;;;;;;;;;;;;;;24.51;63.77;98782.72;7313641;19;129351;-40
2022/09/08 08:20:22;;;;;;;;;;;;;;;24.48;63.98;98793.59;7315538;19;129213;-41
2022/09/08 08:22:47;;;;;;;;;;;;;;;24.43;64.01;98788.88;7316124;19;129459;-41
2022/09/08 08:25:13;;;;;;;;;;;;;;;24.54;63.90;98794.69;7314466;19;129388;-41
2022/09/08 08:27:43;;;;;;;;;;;;;;;24.52;63.66;98794.06;7315084;19;129200;-38
2022/09/08 08:30:17;;;;;;;;;;;;;;;24.53;63.76;98790.44;7317303;19;129165;-40
2022/09/08 08:32:46;;;;;;;;;;;;;;;24.50;64.02;98783.72;7313798;19;128951;-39
2022/09/08 08:35:18;;;;;;;;;;;;;;;24.58;63.91;98782.84;7315586;19;129841;-41
2022/09/08 08:37:45;;;;;;;;;;;;;;;24.61;63.39;98782.47;7314076;19;130353;-41
2022/09/08 08:40:26;;;;;;;;;;;;;;;24.48;63.35;98766.50;7315499;19;129337;-37
2022/09/08 08:43:05;;;;;;;;;;;;;;;24.54;63.63;98771.03;7314492;19;128911;-41
2022/09/08 08:45:45;;;;;;;;;;;;;;;24.52;63.28;98752.00;7315279;19;129044;-41
2022/09/08 08:48:11;;;;;;;;;;;;;;;24.47;63.38;98755.19;7314118;19;130823;-39
2022/09/08 08:50:56;;;;;;;;;;;;;;;24.58;63.52;98782.84;7315385;19;129393;-41
2022/09/08 08:53:28;;;;;;;;;;;;;;;24.46;63.38;98758.81;7309408;19;129343;-39
2022/09/08 08:56:01;;;;;;;;;;;;;;;24.58;63.79;98761.81;7314962;19;129967;-41
2022/09/08 08:58:45;;;;;;;;;;;;;;;24.56;63.03;98771.69;7312488;19;129433;-41
2022/09/08 09:01:33;;;;;;;;;;;;;;;24.54;63.41;98763.16;7314795;19;128926;-41
2022/09/08 09:04:17;;;;;;;;;;;;;;;24.54;63.33;98750.03;7313956;19;129107;-40
2022/09/08 09:07:00;;;;;;;;;;;;;;;24.52;63.88;98752.00;7312333;19;129569;-40
2022/09/08 09:09:25;;;;;;;;;;;;;;;24.53;63.51;98759.72;7313879;19;129498;-39
2022/09/08 09:11:59;;;;;;;;;;;;;;;24.54;63.51;98755.28;7314520;19;128823;-39
2022/09/08 09:14:42;;;;;;;;;;;;;;;24.55;63.96;98747.22;7313631;19;128845;-41
2022/09/08 09:17:16;;;;;;;;;;;;;;;24.57;63.44;98739.97;7314042;19;129011;-38
2022/09/08 09:19:57;;;;;;;;;;;;;;;24.55;63.58;98734.06;7313017;19;129691;-39
2022/09/08 09:22:37;;;;;;;;;;;;;;;24.48;63.48;98731.34;7313877;19;128934;-43
2022/09/08 09:25:05;;;;;;;;;;;;;;;24.51;63.36;98740.66;7314168;19;129003;-40
2022/09/08 09:27:33;;;;;;;;;;;;;;;24.53;63.74;98764.16;7314563;19;129249;-38
2022/09/08 09:30:13;;;;;;;;;;;;;;;24.56;63.37;98769.06;7313503;19;129350;-41
2022/09/08 09:32:57;;;;;;;;;;;;;;;24.54;63.78;98765.78;7313513;19;128938;-40
2022/09/08 09:35:41;;;;;;;;;;;;;;;24.56;63.42;98761.19;7314768;19;129213;-41
2022/09/08 09:38:18;;;;;;;;;;;;;;;24.57;63.83;98749.66;7312198;19;129655;-38
2022/09/08 09:40:50;;;;;;;;;;;;;;;24.58;63.62;98752.09;7313217;19;129152;-40
2022/09/08 09:43:25;;;;;;;;;;;;;;;24.58;63.62;98774.97;7312766;19;129175;-41
2022/09/08 09:46:05;;;;;;;;;;;;;;;24.56;63.29;98782.19;7311977;19;128776;-40
2022/09/08 09:48:46;;;;;;;;;;;;;;;24.54;63.30;98782.38;7311907;19;129735;-39
2022/09/08 09:51:20;;;;;;;;;;;;;;;24.53;64.04;98775.47;7314088;19;130399;-39
2022/09/08 09:53:56;;;;;;;;;;;;;;;24.44;63.84;98761.59;7312516;19;129380;-40
2022/09/08 09:56:42;;;;;;;;;;;;;;;24.47;63.89;98770.94;7313320;19;129482;-41
2022/09/08 09:59:08;;;;;;;;;;;;;;;24.48;63.61;98755.00;7310239;19;130142;-41
2022/09/08 10:01:48;;;;;;;;;;;;;;;24.48;63.90;98761.25;7312110;19;130922;-39
2022/09/08 10:04:26;;;;;;;;;;;;;;;24.44;64.07;98768.69;7315197;19;129334;-41
2022/09/08 10:06:52;;;;;;;;;;;;;;;24.49;63.82;98772.38;7317944;19;129530;-40
2022/09/08 10:09:33;;;;;;;;;;;;;;;24.48;63.88;98768.13;7317071;19;129537;-40
2022/09/08 10:12:16;;;;;;;;;;;;;;;24.44;63.90;98766.84;7320022;19;129529;-40
2022/09/08 10:15:00;;;;;;;;;;;;;;;24.46;63.70;98770.13;7319838;19;129838;-41
2022/09/08 10:17:44;;;;;;;;;;;;;;;24.48;64.01;98761.25;7319685;19;128900;-41
2022/09/08 10:20:27;;;;;;;;;;;;;;;24.39;64.20;98761.31;7319118;19;128942;-41
2022/09/08 10:23:08;;;;;;;;;;;;;;;24.41;64.14;98756.69;7318101;19;129151;-40
2022/09/08 10:26:09;;;;;;;;;;;;;;;24.54;64.04;98771.88;7318742;19;128930;-41
2022/09/08 10:28:40;;;;;;;;;;;;;;;24.51;63.54;98779.28;7312773;19;129833;-37
2022/09/08 10:31:11;;;;;;;;;;;;;;;24.53;63.93;98764.16;7316817;19;130556;-41
2022/09/08 10:34:03;;;;;;;;;;;;;;;24.52;64.17;98765.16;7318718;19;129236;-39
2022/09/08 10:36:47;;;;;;;;;;;;;;;24.54;63.80;98761.34;7318375;19;128772;-41
2022/09/08 10:39:27;;;;;;;;;;;;;;;24.53;63.76;98766.78;7316635;19;128866;-40
2022/09/08 10:42:11;;;;;;;;;;;;;;;24.49;63.51;98759.25;7315941;19;129450;-40
2022/09/08 10:44:45;;;;;;;;;;;;;;;24.49;63.57;98764.50;7318542;19;129611;-41
2022/09/08 10:47:13;;;;;;;;;;;;;;;24.49;63.97;98766.34;7317396;19;128903;-38
2022/09/08 10:49:38;;;;;;;;;;;;;;;24.48;63.81;98757.63;7318712;19;128762;-41
2022/09/08 10:52:06;;;;;;;;;;;;;;;24.49;63.74;98768.97;7317386;19;129223;-40
2022/09/08 10:54:50;;;;;;;;;;;;;;;24.49;64.42;98767.13;7318574;19;129351;-41
2022/09/08 10:57:16;;;;;;;;;;;;;;;24.45;63.73;98773.75;7318116;19;128921;-39
2022/09/08 11:00:01;;;;;;;;;;;;;;;24.46;64.17;98762.22;7317455;19;129174;-40
2022/09/08 11:02:32;;;;;;;;;;;;;;;24.49;64.36;98753.19;7316602;19;129528;-38
2022/09/08 11:05:18;;;;;;;;;;;;;;;24.48;64.49;98757.63;7318526;19;129244;-39
2022/09/08 11:07:55;;;;;;;;;;;;;;;24.49;64.11;98772.38;7317060;19;129155;-39
2022/09/08 11:10:29;;;;;;;;;;;;;;;24.48;64.19;98765.50;7318140;19;128805;-41
2022/09/08 11:13:13;;;;;;;;;;;;;;;24.49;64.01;98763.69;7317080;19;129407;-41
2022/09/08 11:15:38;;;;;;;;;;;;;;;24.52;64.29;98765.16;7316235;19;129255;-40
2022/09/08 11:18:16;;;;;;;;;;;;;;;24.59;64.17;98763.44;7316041;19;130716;-41
2022/09/08 11:21:03;;;;;;;;;;;;;;;24.60;64.10;98762.44;7318809;19;128981;-39
2022/09/08 11:23:47;;;;;;;;;;;;;;;24.53;64.00;98753.66;7318303;19;130234;-40
2022/09/08 11:26:12;;;;;;;;;;;;;;;24.46;64.03;98754.34;7317688;19;129673;-40
2022/09/08 11:28:40;;;;;;;;;;;;;;;24.58;64.46;98764.44;7317335;19;129353;-41
2022/09/08 11:31:23;;;;;;;;;;;;;;;24.55;64.05;98759.53;7316791;19;129434;-41
2022/09/08 11:33:57;;;;;;;;;;;;;;;24.52;63.84;98763.34;7316662;19;129544;-40
2022/09/08 11:36:41;;;;;;;;;;;;;;;24.50;63.34;98749.56;7316389;19;129322;-39
2022/09/08 11:39:18;;;;;;;;;;;;;;;24.44;63.72;98750.28;7314581;19;129193;-40
2022/09/08 11:42:02;;;;;;;;;;;;;;;24.52;64.15;98757.25;7317677;19;129593;-40
2022/09/08 11:44:30;;;;;;;;;;;;;;;24.51;63.98;98760.91;7317385;19;129396;-40
2022/09/08 11:47:09;;;;;;;;;;;;;;;24.49;64.02;98768.97;7316260;19;129146;-41
2022/09/08 11:49:46;;;;;;;;;;;;;;;24.53;64.06;98758.91;7317188;19;128891;-40
2022/09/08 11:52:17;;;;;;;;;;;;;;;24.51;64.32;98766.16;7316462;19;129559;-40
2022/09/08 11:55:02;;;;;;;;;;;;;;;24.54;63.57;98769.25;7317439;19;129416;-41
2022/09/08 11:57:32;;;;;;;;;;;;;;;24.48;64.53;98768.13;7315096;19;130299;-38
2022/09/08 12:00:00;;;;;;;;;;;;;;;24.39;63.87;98750.78;7315755;19;129123;-39
2022/09/08 12:02:25;;;;;;;;;;;;;;;24.49;64.06;98767.13;7315819;19;129234;-38
2022/09/08 12:05:03;;;;;;;;;;;;;;;24.53;63.81;98757.06;7316869;19;129241;-41
2022/09/08 12:07:44;;;;;;;;;;;;;;;24.51;64.36;98750.38;7313340;19;129358;-41
2022/09/08 12:10:28;;;;;;;;;;;;;;;24.56;64.36;98761.19;7316853;19;129329;-41
2022/09/08 12:12:57;;;;;;;;;;;;;;;24.42;64.22;98737.31;7315670;19;129809;-40
2022/09/08 12:15:35;;;;;;;;;;;;;;;24.48;64.14;98756.78;7314846;19;130202;-40
2022/09/08 12:18:27;;;;;;;;;;;;;;;24.48;64.52;98756.00;7315032;19;129504;-40
2022/09/08 12:21:07;;;;;;;;;;;;;;;24.48;64.10;98741.03;7313902;19;128867;-40
2022/09/08 12:23:48;;;;;;;;;;;;;;;24.51;64.33;98750.38;7315218;19;129374;-38
2022/09/08 12:26:24;;;;;;;;;;;;;;;24.46;64.27;98748.31;7314027;19;129230;-41
2022/09/08 12:29:08;;;;;;;;;;;;;;;24.45;64.07;98757.97;7314507;19;129633;-41
2022/09/08 12:31:53;;;;;;;;;;;;;;;24.45;64.05;98747.47;7314752;19;129010;-39
2022/09/08 12:34:31;;;;;;;;;;;;;;;24.45;64.25;98742.22;7315973;19;128790;-40
2022/09/08 12:37:02;;;;;;;;;;;;;;;24.43;63.91;98744.19;7316577;19;129882;-39
2022/09/08 12:39:53;;;;;;;;;;;;;;;24.43;64.73;98744.19;7314913;19;129622;-41
2022/09/08 12:42:18;;;;;;;;;;;;;;;24.42;64.69;98747.84;7314446;19;129081;-37
2022/09/08 12:44:49;;;;;;;;;;;;;;;24.42;63.96;98753.09;7314410;19;128929;-41
2022/09/08 12:47:37;;;;;;;;;;;;;;;24.43;64.49;98749.47;7313413;19;130136;-37
2022/09/08 12:50:02;;;;;;;;;;;;;;;24.30;64.70;98733.47;7315307;19;129252;-37
2022/09/08 12:52:35;;;;;;;;;;;;;;;24.43;64.07;98759.97;7311614;19;129640;-37
2022/09/08 12:55:13;;;;;;;;;;;;;;;24.44;64.25;98760.78;7314332;19;129185;-35
2022/09/08 12:57:49;;;;;;;;;;;;;;;24.43;64.70;98757.34;7314071;19;129968;-39
2022/09/08 13:00:20;;;;;;;;;;;;;;;24.41;64.86;98759.31;7313975;19;129856;-41